sensor_id;sensor_type;location;lat;lon;timestamp;pressure;altitude;pressure_sealevel;temperature;humidity
70072;BME280;57434;42.794;23.302;2023-03-04T00:00:21;95729.94;;;3.91;94.97
70072;BME280;57434;42.794;23.302;2023-03-04T00:01:23;95728.25;;;3.94;95.14
70072;BME280;57434;42.794;23.302;2023-03-04T00:02:24;95588.03;;;3.07;94.92
70072;BME280;57434;42.794;23.302;2023-03-04T00:03:26;95739.22;;;4.10;94.92
70072;BME280;57434;42.794;23.302;2023-03-04T00:04:28;95711.59;;;3.94;94.83
70072;BME280;57434;42.794;23.302;2023-03-04T00:05:30;95722.69;;;4.06;94.79
70072;BME280;57434;42.794;23.302;2023-03-04T00:06:32;95666.78;;;3.70;94.56
70072;BME280;57434;42.794;23.302;2023-03-04T00:07:34;95715.97;;;3.82;94.71
70072;BME280;57434;42.794;23.302;2023-03-04T00:08:35;95759.44;;;4.10;94.79
70072;BME280;57434;42.794;23.302;2023-03-04T00:09:37;95620.34;;;3.49;94.55
70072;BME280;57434;42.794;23.302;2023-03-04T00:10:39;95655.97;;;3.63;94.50
70072;BME280;57434;42.794;23.302;2023-03-04T00:11:40;95726.00;;;4.14;94.45
70072;BME280;57434;42.794;23.302;2023-03-04T00:12:42;95717.13;;;4.06;94.28
70072;BME280;57434;42.794;23.302;2023-03-04T00:13:44;95729.56;;;4.15;94.34
70072;BME280;57434;42.794;23.302;2023-03-04T00:14:46;95716.78;;;4.04;94.35
70072;BME280;57434;42.794;23.302;2023-03-04T00:15:48;95723.88;;;4.18;94.40
70072;BME280;57434;42.794;23.302;2023-03-04T00:16:50;95725.56;;;4.16;94.21
70072;BME280;57434;42.794;23.302;2023-03-04T00:17:52;95721.41;;;4.20;94.23
70072;BME280;57434;42.794;23.302;2023-03-04T00:18:55;95716.63;;;4.21;94.29
70072;BME280;57434;42.794;23.302;2023-03-04T00:19:57;95702.13;;;4.04;94.29
70072;BME280;57434;42.794;23.302;2023-03-04T00:20:59;95697.19;;;3.86;94.37
70072;BME280;57434;42.794;23.302;2023-03-04T00:22:02;95676.34;;;3.69;94.39
70072;BME280;57434;42.794;23.302;2023-03-04T00:23:04;95551.44;;;2.87;94.59
70072;BME280;57434;42.794;23.302;2023-03-04T00:24:06;95721.13;;;3.93;94.85
70072;BME280;57434;42.794;23.302;2023-03-04T00:25:08;95711.03;;;3.99;94.89
70072;BME280;57434;42.794;23.302;2023-03-04T00:26:10;95379.16;;;1.82;94.70
70072;BME280;57434;42.794;23.302;2023-03-04T00:27:12;95710.91;;;4.02;95.01
70072;BME280;57434;42.794;23.302;2023-03-04T00:28:13;95697.06;;;3.90;95.19
70072;BME280;57434;42.794;23.302;2023-03-04T00:29:15;95721.13;;;4.05;95.17
70072;BME280;57434;42.794;23.302;2023-03-04T00:30:17;95698.97;;;3.80;95.33
70072;BME280;57434;42.794;23.302;2023-03-04T00:31:19;95695.53;;;3.76;95.42
70072;BME280;57434;42.794;23.302;2023-03-04T00:32:21;95703.41;;;3.90;95.41
70072;BME280;57434;42.794;23.302;2023-03-04T00:33:22;95701.09;;;3.76;95.46
70072;BME280;57434;42.794;23.302;2023-03-04T00:34:24;95667.94;;;3.60;95.39
70072;BME280;57434;42.794;23.302;2023-03-04T00:35:26;95637.53;;;3.43;95.52
70072;BME280;57434;42.794;23.302;2023-03-04T00:36:28;95710.19;;;3.89;95.71
70072;BME280;57434;42.794;23.302;2023-03-04T00:37:30;95716.06;;;3.91;95.62
70072;BME280;57434;42.794;23.302;2023-03-04T00:38:31;95714.69;;;3.96;95.54
70072;BME280;57434;42.794;23.302;2023-03-04T00:39:33;95707.81;;;4.00;95.60
70072;BME280;57434;42.794;23.302;2023-03-04T00:40:35;95688.03;;;3.98;95.63
70072;BME280;57434;42.794;23.302;2023-03-04T00:41:37;95694.25;;;4.02;95.45
70072;BME280;57434;42.794;23.302;2023-03-04T00:42:39;95599.88;;;3.33;95.13
70072;BME280;57434;42.794;23.302;2023-03-04T00:43:41;95694.91;;;4.06;95.19
70072;BME280;57434;42.794;23.302;2023-03-04T00:44:43;95677.38;;;3.97;95.01
70072;BME280;57434;42.794;23.302;2023-03-04T00:45:45;95703.56;;;4.08;95.08
70072;BME280;57434;42.794;23.302;2023-03-04T00:46:46;95658.56;;;3.79;94.99
70072;BME280;57434;42.794;23.302;2023-03-04T00:47:48;95672.66;;;3.85;95.00
70072;BME280;57434;42.794;23.302;2023-03-04T00:48:50;95702.00;;;4.07;94.99
70072;BME280;57434;42.794;23.302;2023-03-04T00:49:52;95702.47;;;4.06;95.19
70072;BME280;57434;42.794;23.302;2023-03-04T00:50:54;95697.19;;;3.86;95.21
70072;BME280;57434;42.794;23.302;2023-03-04T00:51:56;95694.69;;;4.01;95.22
70072;BME280;57434;42.794;23.302;2023-03-04T00:52:58;95583.00;;;3.28;95.14
70072;BME280;57434;42.794;23.302;2023-03-04T00:54:00;95653.50;;;3.65;95.18
70072;BME280;57434;42.794;23.302;2023-03-04T00:55:03;95569.53;;;2.92;95.13
70072;BME280;57434;42.794;23.302;2023-03-04T00:56:05;95699.97;;;3.86;95.45
70072;BME280;57434;42.794;23.302;2023-03-04T00:57:07;95499.28;;;2.60;95.27
70072;BME280;57434;42.794;23.302;2023-03-04T00:58:09;95686.88;;;3.87;95.54
70072;BME280;57434;42.794;23.302;2023-03-04T00:59:11;95686.97;;;3.83;95.68
70072;BME280;57434;42.794;23.302;2023-03-04T01:00:13;95684.97;;;3.84;95.78
70072;BME280;57434;42.794;23.302;2023-03-04T01:01:15;95690.88;;;3.73;95.93
70072;BME280;57434;42.794;23.302;2023-03-04T01:02:17;95670.59;;;3.63;96.16
70072;BME280;57434;42.794;23.302;2023-03-04T01:03:19;95526.97;;;2.60;96.18
70072;BME280;57434;42.794;23.302;2023-03-04T01:04:21;95719.28;;;3.77;96.18
70072;BME280;57434;42.794;23.302;2023-03-04T01:05:22;95669.38;;;3.64;96.49
70072;BME280;57434;42.794;23.302;2023-03-04T01:06:24;95655.75;;;3.57;96.46
70072;BME280;57434;42.794;23.302;2023-03-04T01:07:26;95654.41;;;3.49;96.61
70072;BME280;57434;42.794;23.302;2023-03-04T01:08:28;95669.13;;;3.71;96.50
70072;BME280;57434;42.794;23.302;2023-03-04T01:09:30;95541.03;;;2.91;96.45
70072;BME280;57434;42.794;23.302;2023-03-04T01:10:32;95684.41;;;3.89;96.57
70072;BME280;57434;42.794;23.302;2023-03-04T01:11:34;95706.50;;;3.92;96.40
70072;BME280;57434;42.794;23.302;2023-03-04T01:12:36;95558.44;;;2.92;96.23
70072;BME280;57434;42.794;23.302;2023-03-04T01:13:38;95674.56;;;3.75;96.34
70072;BME280;57434;42.794;23.302;2023-03-04T01:14:40;95541.03;;;2.91;96.04
70072;BME280;57434;42.794;23.302;2023-03-04T01:15:42;95631.56;;;3.58;95.92
70072;BME280;57434;42.794;23.302;2023-03-04T01:16:44;95687.03;;;4.05;95.96
70072;BME280;57434;42.794;23.302;2023-03-04T01:17:46;95685.03;;;4.05;95.82
70072;BME280;57434;42.794;23.302;2023-03-04T01:18:48;95674.38;;;4.04;95.61
70072;BME280;57434;42.794;23.302;2023-03-04T01:19:50;95682.53;;;4.20;95.45
70072;BME280;57434;42.794;23.302;2023-03-04T01:20:52;95684.69;;;4.16;95.10
70072;BME280;57434;42.794;23.302;2023-03-04T01:21:53;95679.91;;;4.17;95.01
70072;BME280;57434;42.794;23.302;2023-03-04T01:22:55;95638.91;;;3.86;94.82
70072;BME280;57434;42.794;23.302;2023-03-04T01:23:57;95681.59;;;4.01;95.05
70072;BME280;57434;42.794;23.302;2023-03-04T01:24:59;95660.06;;;3.93;94.86
70072;BME280;57434;42.794;23.302;2023-03-04T01:26:01;95669.16;;;4.06;94.56
70072;BME280;57434;42.794;23.302;2023-03-04T01:27:02;95688.09;;;4.20;94.26
70072;BME280;57434;42.794;23.302;2023-03-04T01:28:04;95686.72;;;4.25;94.04
70072;BME280;57434;42.794;23.302;2023-03-04T01:29:06;95679.06;;;4.29;93.78
70072;BME280;57434;42.794;23.302;2023-03-04T01:30:08;95538.16;;;3.42;93.55
70072;BME280;57434;42.794;23.302;2023-03-04T01:31:10;95509.81;;;3.25;92.93
70072;BME280;57434;42.794;23.302;2023-03-04T01:32:12;95675.72;;;4.34;92.79
70072;BME280;57434;42.794;23.302;2023-03-04T01:33:14;95675.72;;;4.34;92.82
70072;BME280;57434;42.794;23.302;2023-03-04T01:34:16;95676.03;;;4.36;92.72
70072;BME280;57434;42.794;23.302;2023-03-04T01:35:18;95640.50;;;4.09;92.37
70072;BME280;57434;42.794;23.302;2023-03-04T01:36:20;95633.72;;;4.10;92.21
70072;BME280;57434;42.794;23.302;2023-03-04T01:37:22;95673.50;;;4.29;92.11
70072;BME280;57434;42.794;23.302;2023-03-04T01:38:24;95628.25;;;3.85;92.10
70072;BME280;57434;42.794;23.302;2023-03-04T01:39:25;95645.50;;;4.01;92.25
70072;BME280;57434;42.794;23.302;2023-03-04T01:40:27;95664.69;;;4.08;92.18
70072;BME280;57434;42.794;23.302;2023-03-04T01:41:29;95636.97;;;3.96;92.41
70072;BME280;57434;42.794;23.302;2023-03-04T01:42:33;95675.47;;;4.06;92.71
70072;BME280;57434;42.794;23.302;2023-03-04T01:43:36;95538.78;;;3.24;92.68
70072;BME280;57434;42.794;23.302;2023-03-04T01:44:38;95670.38;;;4.05;92.97
70072;BME280;57434;42.794;23.302;2023-03-04T01:45:40;95673.59;;;4.03;93.35
70072;BME280;57434;42.794;23.302;2023-03-04T01:46:49;95671.16;;;4.05;93.02
70072;BME280;57434;42.794;23.302;2023-03-04T01:47:52;95649.63;;;3.97;93.14
70072;BME280;57434;42.794;23.302;2023-03-04T01:48:54;95603.88;;;3.67;93.36
70072;BME280;57434;42.794;23.302;2023-03-04T01:49:57;95607.25;;;3.62;93.33
70072;BME280;57434;42.794;23.302;2023-03-04T01:51:09;95667.88;;;3.85;93.65
70072;BME280;57434;42.794;23.302;2023-03-04T01:52:12;95659.50;;;3.98;93.82
70072;BME280;57434;42.794;23.302;2023-03-04T01:53:21;95666.81;;;4.04;93.90
70072;BME280;57434;42.794;23.302;2023-03-04T01:54:24;95671.16;;;4.05;93.83
70072;BME280;57434;42.794;23.302;2023-03-04T01:55:26;95662.09;;;3.92;93.75
70072;BME280;57434;42.794;23.302;2023-03-04T01:56:30;95634.13;;;3.87;93.99
70072;BME280;57434;42.794;23.302;2023-03-04T01:57:35;95673.81;;;4.09;93.80
70072;BME280;57434;42.794;23.302;2023-03-04T01:58:37;95550.63;;;3.37;93.54
70072;BME280;57434;42.794;23.302;2023-03-04T01:59:39;95645.50;;;4.01;93.63
70072;BME280;57434;42.794;23.302;2023-03-04T02:00:42;95670.38;;;4.05;93.71
70072;BME280;57434;42.794;23.302;2023-03-04T02:01:46;95529.44;;;3.31;93.68
70072;BME280;57434;42.794;23.302;2023-03-04T02:02:51;95644.84;;;3.97;93.68
70072;BME280;57434;42.794;23.302;2023-03-04T02:03:54;95633.88;;;3.94;93.72
70072;BME280;57434;42.794;23.302;2023-03-04T02:04:56;95638.41;;;4.00;93.54
70072;BME280;57434;42.794;23.302;2023-03-04T02:05:58;95660.31;;;4.20;93.56
70072;BME280;57434;42.794;23.302;2023-03-04T02:07:01;95639.72;;;4.08;93.54
70072;BME280;57434;42.794;23.302;2023-03-04T02:08:04;95639.84;;;4.05;93.50
70072;BME280;57434;42.794;23.302;2023-03-04T02:09:07;95652.91;;;4.17;93.48
70072;BME280;57434;42.794;23.302;2023-03-04T02:10:10;95653.69;;;4.18;93.29
70072;BME280;57434;42.794;23.302;2023-03-04T02:11:13;95638.03;;;4.11;93.36
70072;BME280;57434;42.794;23.302;2023-03-04T02:12:15;95652.91;;;4.17;93.34
70072;BME280;57434;42.794;23.302;2023-03-04T02:13:17;95592.09;;;3.75;93.30
70072;BME280;57434;42.794;23.302;2023-03-04T02:14:20;95650.38;;;4.10;93.21
70072;BME280;57434;42.794;23.302;2023-03-04T02:15:22;95657.63;;;3.95;93.31
70072;BME280;57434;42.794;23.302;2023-03-04T02:16:24;95618.41;;;3.71;93.30
70072;BME280;57434;42.794;23.302;2023-03-04T02:17:27;95484.63;;;2.98;93.25
70072;BME280;57434;42.794;23.302;2023-03-04T02:18:29;95647.06;;;4.02;93.45
70072;BME280;57434;42.794;23.302;2023-03-04T02:19:50;95645.19;;;3.99;93.40
70072;BME280;57434;42.794;23.302;2023-03-04T02:21:22;95638.47;;;3.88;93.53
70072;BME280;57434;42.794;23.302;2023-03-04T02:22:24;95654.53;;;3.93;93.67
70072;BME280;57434;42.794;23.302;2023-03-04T02:24:59;95650.00;;;3.86;93.77
70072;BME280;57434;42.794;23.302;2023-03-04T02:26:33;95651.91;;;3.89;93.89
70072;BME280;57434;42.794;23.302;2023-03-04T02:27:35;95636.59;;;3.85;93.85
70072;BME280;57434;42.794;23.302;2023-03-04T02:28:37;95586.28;;;3.61;93.64
70072;BME280;57434;42.794;23.302;2023-03-04T02:29:39;95652.72;;;3.99;93.52
70072;BME280;57434;42.794;23.302;2023-03-04T02:30:41;95496.47;;;2.98;93.22
70072;BME280;57434;42.794;23.302;2023-03-04T02:31:50;95621.16;;;3.84;93.13
70072;BME280;57434;42.794;23.302;2023-03-04T02:32:53;95630.78;;;3.92;93.14
70072;BME280;57434;42.794;23.302;2023-03-04T02:33:57;95587.38;;;3.63;92.98
70072;BME280;57434;42.794;23.302;2023-03-04T02:35:00;95522.69;;;3.19;92.64
70072;BME280;57434;42.794;23.302;2023-03-04T02:36:01;95625.38;;;3.88;92.76
70072;BME280;57434;42.794;23.302;2023-03-04T02:37:03;95656.34;;;3.87;92.48
70072;BME280;57434;42.794;23.302;2023-03-04T02:38:05;95642.97;;;3.94;92.34
70072;BME280;57434;42.794;23.302;2023-03-04T02:40:22;95485.31;;;2.77;92.31
70072;BME280;57434;42.794;23.302;2023-03-04T02:41:25;95647.25;;;3.86;92.21
70072;BME280;57434;42.794;23.302;2023-03-04T02:42:29;95637.81;;;3.71;92.09
70072;BME280;57434;42.794;23.302;2023-03-04T02:43:31;95633.94;;;3.68;92.37
70072;BME280;57434;42.794;23.302;2023-03-04T02:44:35;95603.94;;;3.41;92.36
70072;BME280;57434;42.794;23.302;2023-03-04T02:46:39;95594.09;;;3.28;92.69
70072;BME280;57434;42.794;23.302;2023-03-04T02:47:41;95605.31;;;3.37;92.97
70072;BME280;57434;42.794;23.302;2023-03-04T02:48:42;95617.34;;;3.43;92.86
70072;BME280;57434;42.794;23.302;2023-03-04T02:49:45;95602.06;;;3.38;93.28
70072;BME280;57434;42.794;23.302;2023-03-04T02:50:50;95560.09;;;3.02;93.08
70072;BME280;57434;42.794;23.302;2023-03-04T02:55:46;95636.88;;;3.52;93.50
70072;BME280;57434;42.794;23.302;2023-03-04T02:56:58;95595.66;;;3.29;93.25
70072;BME280;57434;42.794;23.302;2023-03-04T02:58:00;95590.66;;;3.24;93.23
70072;BME280;57434;42.794;23.302;2023-03-04T02:59:02;95637.88;;;3.58;93.21
70072;BME280;57434;42.794;23.302;2023-03-04T03:00:05;95643.31;;;3.49;93.03
70072;BME280;57434;42.794;23.302;2023-03-04T03:01:07;95506.25;;;2.39;93.12
70072;BME280;57434;42.794;23.302;2023-03-04T03:02:09;95640.56;;;3.36;93.46
70072;BME280;57434;42.794;23.302;2023-03-04T03:03:11;95560.88;;;2.64;93.26
70072;BME280;57434;42.794;23.302;2023-03-04T03:04:13;95621.59;;;3.22;93.17
70072;BME280;57434;42.794;23.302;2023-03-04T03:05:16;95418.00;;;2.03;93.02
70072;BME280;57434;42.794;23.302;2023-03-04T03:06:18;95594.78;;;3.19;92.88
70072;BME280;57434;42.794;23.302;2023-03-04T03:07:19;95493.22;;;2.53;92.60
70072;BME280;57434;42.794;23.302;2023-03-04T03:08:21;95615.41;;;3.18;93.02
70072;BME280;57434;42.794;23.302;2023-03-04T03:09:23;95611.97;;;3.14;92.95
70072;BME280;57434;42.794;23.302;2023-03-04T03:10:25;95643.22;;;3.40;92.83
70072;BME280;57434;42.794;23.302;2023-03-04T03:11:28;95602.66;;;3.21;92.85
70072;BME280;57434;42.794;23.302;2023-03-04T03:12:29;95549.13;;;2.86;92.70
70072;BME280;57434;42.794;23.302;2023-03-04T03:13:31;95653.84;;;3.54;92.55
70072;BME280;57434;42.794;23.302;2023-03-04T03:14:33;95556.88;;;3.03;92.53
70072;BME280;57434;42.794;23.302;2023-03-04T03:15:35;95647.19;;;3.52;92.55
70072;BME280;57434;42.794;23.302;2023-03-04T03:16:36;95639.00;;;3.48;92.36
70072;BME280;57434;42.794;23.302;2023-03-04T03:17:39;95638.22;;;3.48;92.60
70072;BME280;57434;42.794;23.302;2023-03-04T03:18:41;95626.00;;;3.45;92.57
70072;BME280;57434;42.794;23.302;2023-03-04T03:19:43;95626.50;;;3.31;92.64
70072;BME280;57434;42.794;23.302;2023-03-04T03:20:45;95646.09;;;3.49;92.88
70072;BME280;57434;42.794;23.302;2023-03-04T03:21:47;95617.47;;;3.39;92.76
70072;BME280;57434;42.794;23.302;2023-03-04T03:22:49;95629.94;;;3.35;92.83
70072;BME280;57434;42.794;23.302;2023-03-04T03:23:51;95610.53;;;3.22;93.07
70072;BME280;57434;42.794;23.302;2023-03-04T03:24:52;95621.59;;;3.35;93.18
70072;BME280;57434;42.794;23.302;2023-03-04T03:25:54;95603.41;;;3.21;93.20
70072;BME280;57434;42.794;23.302;2023-03-04T03:26:56;95640.31;;;3.43;93.21
70072;BME280;57434;42.794;23.302;2023-03-04T03:27:58;95638.78;;;3.42;93.33
70072;BME280;57434;42.794;23.302;2023-03-04T03:29:00;95632.56;;;3.38;93.20
70072;BME280;57434;42.794;23.302;2023-03-04T03:30:03;95633.03;;;3.37;93.37
70072;BME280;57434;42.794;23.302;2023-03-04T03:31:05;95458.66;;;2.19;93.37
70072;BME280;57434;42.794;23.302;2023-03-04T03:32:07;95637.66;;;3.40;93.34
70072;BME280;57434;42.794;23.302;2023-03-04T03:33:09;95649.19;;;3.38;93.39
70072;BME280;57434;42.794;23.302;2023-03-04T03:34:11;95578.84;;;2.98;93.36
70072;BME280;57434;42.794;23.302;2023-03-04T03:35:13;95574.41;;;2.75;93.48
70072;BME280;57434;42.794;23.302;2023-03-04T03:36:14;95575.72;;;2.83;93.69
70072;BME280;57434;42.794;23.302;2023-03-04T03:37:16;95587.69;;;3.05;93.74
70072;BME280;57434;42.794;23.302;2023-03-04T03:38:18;95625.59;;;3.21;93.61
70072;BME280;57434;42.794;23.302;2023-03-04T03:39:20;95632.56;;;3.38;93.61
70072;BME280;57434;42.794;23.302;2023-03-04T03:40:22;95614.50;;;3.21;93.66
70072;BME280;57434;42.794;23.302;2023-03-04T03:41:24;95600.66;;;3.21;93.20
70072;BME280;57434;42.794;23.302;2023-03-04T03:42:26;95632.16;;;3.27;93.33
70072;BME280;57434;42.794;23.302;2023-03-04T03:43:28;95635.66;;;3.40;93.44
70072;BME280;57434;42.794;23.302;2023-03-04T03:44:30;95617.06;;;3.28;93.05
70072;BME280;57434;42.794;23.302;2023-03-04T03:45:32;95626.47;;;3.43;93.03
70072;BME280;57434;42.794;23.302;2023-03-04T03:46:34;95632.47;;;3.29;93.21
70072;BME280;57434;42.794;23.302;2023-03-04T03:47:36;95580.50;;;2.95;93.43
70072;BME280;57434;42.794;23.302;2023-03-04T03:48:37;95604.41;;;3.15;93.29
70072;BME280;57434;42.794;23.302;2023-03-04T03:49:39;95624.47;;;3.44;93.36
70072;BME280;57434;42.794;23.302;2023-03-04T03:50:41;95623.44;;;3.51;93.41
70072;BME280;57434;42.794;23.302;2023-03-04T03:51:43;95633.00;;;3.50;93.49
70072;BME280;57434;42.794;23.302;2023-03-04T03:52:45;95633.88;;;3.47;93.40
70072;BME280;57434;42.794;23.302;2023-03-04T03:53:47;95626.34;;;3.47;93.55
70072;BME280;57434;42.794;23.302;2023-03-04T03:54:49;95625.91;;;3.49;93.71
70072;BME280;57434;42.794;23.302;2023-03-04T03:55:51;95624.13;;;3.42;93.66
70072;BME280;57434;42.794;23.302;2023-03-04T03:56:52;95585.59;;;3.10;93.64
70072;BME280;57434;42.794;23.302;2023-03-04T03:57:54;95597.97;;;3.30;93.78
70072;BME280;57434;42.794;23.302;2023-03-04T03:58:56;95485.91;;;2.46;93.66
70072;BME280;57434;42.794;23.302;2023-03-04T03:59:58;95617.03;;;3.41;93.75
70072;BME280;57434;42.794;23.302;2023-03-04T04:01:00;95639.22;;;3.41;93.69
70072;BME280;57434;42.794;23.302;2023-03-04T04:02:02;95583.13;;;3.12;93.91
70072;BME280;57434;42.794;23.302;2023-03-04T04:03:04;95604.75;;;3.29;93.72
70072;BME280;57434;42.794;23.302;2023-03-04T04:04:07;95616.59;;;3.42;93.64
70072;BME280;57434;42.794;23.302;2023-03-04T04:05:09;95386.81;;;1.90;93.30
70072;BME280;57434;42.794;23.302;2023-03-04T04:06:11;95577.81;;;3.17;93.39
70072;BME280;57434;42.794;23.302;2023-03-04T04:07:13;95620.25;;;3.39;93.50
70072;BME280;57434;42.794;23.302;2023-03-04T04:08:16;95526.44;;;2.65;93.51
70072;BME280;57434;42.794;23.302;2023-03-04T04:09:19;95625.94;;;3.36;93.59
70072;BME280;57434;42.794;23.302;2023-03-04T04:10:21;95450.59;;;2.25;93.29
70072;BME280;57434;42.794;23.302;2023-03-04T04:11:22;95616.19;;;3.31;93.31
70072;BME280;57434;42.794;23.302;2023-03-04T04:12:25;95586.94;;;3.05;93.21
70072;BME280;57434;42.794;23.302;2023-03-04T04:13:26;95618.72;;;3.13;93.30
70072;BME280;57434;42.794;23.302;2023-03-04T04:14:28;95619.16;;;3.12;93.54
70072;BME280;57434;42.794;23.302;2023-03-04T04:15:30;95565.56;;;2.80;93.51
70072;BME280;57434;42.794;23.302;2023-03-04T04:16:32;95618.72;;;3.13;93.56
70072;BME280;57434;42.794;23.302;2023-03-04T04:17:34;95592.03;;;2.94;93.51
70072;BME280;57434;42.794;23.302;2023-03-04T04:18:36;95610.84;;;3.12;93.45
70072;BME280;57434;42.794;23.302;2023-03-04T04:19:39;95615.63;;;3.11;93.38
70072;BME280;57434;42.794;23.302;2023-03-04T04:20:41;95536.06;;;2.61;93.25
70072;BME280;57434;42.794;23.302;2023-03-04T04:21:43;95616.41;;;3.12;93.30
70072;BME280;57434;42.794;23.302;2023-03-04T04:22:45;95611.63;;;3.12;93.18
70072;BME280;57434;42.794;23.302;2023-03-04T04:23:47;95609.28;;;3.11;93.20
70072;BME280;57434;42.794;23.302;2023-03-04T04:24:48;95609.78;;;3.09;93.14
70072;BME280;57434;42.794;23.302;2023-03-04T04:25:50;95604.00;;;2.91;93.35
70072;BME280;57434;42.794;23.302;2023-03-04T04:26:52;95609.09;;;2.92;93.54
70072;BME280;57434;42.794;23.302;2023-03-04T04:27:54;95483.66;;;2.16;93.51
70072;BME280;57434;42.794;23.302;2023-03-04T04:28:55;95578.50;;;2.70;93.27
70072;BME280;57434;42.794;23.302;2023-03-04T04:29:57;95613.19;;;2.75;93.49
70072;BME280;57434;42.794;23.302;2023-03-04T04:30:59;95610.28;;;2.66;93.38
70072;BME280;57434;42.794;23.302;2023-03-04T04:32:02;95604.97;;;2.46;93.91
70072;BME280;57434;42.794;23.302;2023-03-04T04:33:04;95568.38;;;2.26;94.39
70072;BME280;57434;42.794;23.302;2023-03-04T04:34:06;95570.53;;;2.05;94.68
70072;BME280;57434;42.794;23.302;2023-03-04T04:35:08;95600.25;;;2.18;95.07
70072;BME280;57434;42.794;23.302;2023-03-04T04:36:13;95602.66;;;2.16;95.42
70072;BME280;57434;42.794;23.302;2023-03-04T04:37:15;95574.41;;;1.95;95.81
70072;BME280;57434;42.794;23.302;2023-03-04T04:38:17;95600.69;;;2.16;95.90
70072;BME280;57434;42.794;23.302;2023-03-04T04:39:19;95539.97;;;1.96;95.80
70072;BME280;57434;42.794;23.302;2023-03-04T04:40:21;95609.69;;;2.33;96.01
70072;BME280;57434;42.794;23.302;2023-03-04T04:41:25;95621.41;;;2.24;96.42
70072;BME280;57434;42.794;23.302;2023-03-04T04:42:29;95502.75;;;1.43;96.82
70072;BME280;57434;42.794;23.302;2023-03-04T04:43:30;95568.28;;;1.88;97.15
70072;BME280;57434;42.794;23.302;2023-03-04T04:44:32;95596.84;;;2.26;97.32
70072;BME280;57434;42.794;23.302;2023-03-04T04:45:34;95624.41;;;2.30;97.43
70072;BME280;57434;42.794;23.302;2023-03-04T04:46:36;95589.38;;;2.11;97.06
70072;BME280;57434;42.794;23.302;2023-03-04T04:47:38;95608.94;;;2.45;96.74
70072;BME280;57434;42.794;23.302;2023-03-04T04:48:40;95392.59;;;1.00;96.07
70072;BME280;57434;42.794;23.302;2023-03-04T04:49:42;95411.91;;;1.16;95.76
70072;BME280;57434;42.794;23.302;2023-03-04T04:50:44;95562.72;;;2.17;95.70
70072;BME280;57434;42.794;23.302;2023-03-04T04:51:46;95611.94;;;2.51;95.54
70072;BME280;57434;42.794;23.302;2023-03-04T04:52:48;95612.63;;;2.55;95.23
70072;BME280;57434;42.794;23.302;2023-03-04T04:53:50;95614.16;;;2.56;95.14
70072;BME280;57434;42.794;23.302;2023-03-04T04:54:52;95556.75;;;2.18;94.84
70072;BME280;57434;42.794;23.302;2023-03-04T04:55:54;95620.03;;;2.45;94.44
70072;BME280;57434;42.794;23.302;2023-03-04T04:56:56;95577.63;;;2.06;94.20
70072;BME280;57434;42.794;23.302;2023-03-04T04:57:57;95635.09;;;2.44;93.91
70072;BME280;57434;42.794;23.302;2023-03-04T04:59:02;95555.25;;;2.01;93.65
70072;BME280;57434;42.794;23.302;2023-03-04T05:00:05;95616.22;;;2.39;93.60
70072;BME280;57434;42.794;23.302;2023-03-04T05:01:08;95601.25;;;2.24;93.52
70072;BME280;57434;42.794;23.302;2023-03-04T05:02:10;95589.28;;;2.14;93.45
70072;BME280;57434;42.794;23.302;2023-03-04T05:03:12;95580.66;;;1.83;93.45
70072;BME280;57434;42.794;23.302;2023-03-04T05:04:13;95602.81;;;2.25;93.52
70072;BME280;57434;42.794;23.302;2023-03-04T05:05:15;95645.63;;;2.49;93.62
70072;BME280;57434;42.794;23.302;2023-03-04T05:06:18;95629.69;;;2.53;93.26
70072;BME280;57434;42.794;23.302;2023-03-04T05:07:20;95617.94;;;2.49;93.24
70072;BME280;57434;42.794;23.302;2023-03-04T05:08:22;95600.25;;;2.30;93.07
70072;BME280;57434;42.794;23.302;2023-03-04T05:09:24;95634.66;;;2.58;93.04
70072;BME280;57434;42.794;23.302;2023-03-04T05:10:26;95605.59;;;2.25;93.03
70072;BME280;57434;42.794;23.302;2023-03-04T05:11:28;95571.28;;;1.93;93.24
70072;BME280;57434;42.794;23.302;2023-03-04T05:12:30;95645.47;;;2.40;93.48
70072;BME280;57434;42.794;23.302;2023-03-04T05:13:32;95573.22;;;1.80;93.54
70072;BME280;57434;42.794;23.302;2023-03-04T05:14:34;95609.22;;;2.22;93.66
70072;BME280;57434;42.794;23.302;2023-03-04T05:15:36;95665.72;;;2.37;93.94
70072;BME280;57434;42.794;23.302;2023-03-04T05:16:39;95599.38;;;2.21;93.95
70072;BME280;57434;42.794;23.302;2023-03-04T05:17:41;95635.31;;;2.50;94.03
70072;BME280;57434;42.794;23.302;2023-03-04T05:18:43;95659.47;;;2.49;93.89
70072;BME280;57434;42.794;23.302;2023-03-04T05:19:45;95604.22;;;2.17;94.09
70072;BME280;57434;42.794;23.302;2023-03-04T05:21:05;95621.56;;;2.46;94.37
70072;BME280;57434;42.794;23.302;2023-03-04T05:22:07;95613.81;;;2.41;94.42
70072;BME280;57434;42.794;23.302;2023-03-04T05:23:09;95607.72;;;2.46;94.36
70072;BME280;57434;42.794;23.302;2023-03-04T05:24:11;95603.59;;;2.38;94.07
70072;BME280;57434;42.794;23.302;2023-03-04T05:25:13;95652.03;;;2.59;94.15
70072;BME280;57434;42.794;23.302;2023-03-04T05:26:16;95648.03;;;2.47;94.27
70072;BME280;57434;42.794;23.302;2023-03-04T05:27:18;95630.06;;;2.39;94.62
70072;BME280;57434;42.794;23.302;2023-03-04T05:28:20;95537.78;;;1.75;94.31
70072;BME280;57434;42.794;23.302;2023-03-04T05:29:22;95654.84;;;2.71;94.51
70072;BME280;57434;42.794;23.302;2023-03-04T05:30:24;95638.09;;;2.50;94.44
70072;BME280;57434;42.794;23.302;2023-03-04T05:31:26;95649.22;;;2.75;94.56
70072;BME280;57434;42.794;23.302;2023-03-04T05:32:28;95616.72;;;2.50;94.06
70072;BME280;57434;42.794;23.302;2023-03-04T05:33:30;95643.97;;;2.64;94.16
70072;BME280;57434;42.794;23.302;2023-03-04T05:34:32;95661.75;;;2.80;94.02
70072;BME280;57434;42.794;23.302;2023-03-04T05:35:35;95625.03;;;2.63;93.86
70072;BME280;57434;42.794;23.302;2023-03-04T05:36:37;95599.56;;;2.55;93.73
70072;BME280;57434;42.794;23.302;2023-03-04T05:37:38;95621.25;;;2.57;93.51
70072;BME280;57434;42.794;23.302;2023-03-04T05:38:40;95665.41;;;3.02;93.43